Kezdőlap
METAR-TAF:

METAR-TAF

Repülőterek :

Big Spring McMahon-Wrinkle Airport

Big Spring, Texas, Amerikai Egyesült Államok

földrajzi szélesség: 32-12N, földrajzi hosszúság: 101-31W, magasság: 784 m

Jelenlegi meteorológiai megfigyelések

A jelentés 22 perccel ezelõtt készült, 13:55 UTC
Dél-délkeleti szél 17 kt széllökések: 23 kt
Hőmérséklet 25°C
Páratartalom 74%
Légköri nyomás 1010 hPa
Látótávolság: 16.1 km
Borult 2400 lábon
zivatar a közelben

METAR: KBPG 181355Z AUTO 16017G23KT 10SM VCTS OVC024 25/20 A2982 RMK AO2 LTG DSNT NE AND E T02460197

Idő: 09:17 (14:17 UTC)


TAF: hiányzik

Meteorológiai megfigyelések és előrejelzések több, mint 4000 repülőtéren (METAR és TAF jelentéseket).

A térképen piros és sárga pontok jelzik az elérhető meteorológiai állomásokat.

Mozgassa az egeret a pont fölött, hogy megjelenjen az állomás neve.

Azután kattintson az időjárási megfigyelések és előrejelzések megtekintéséhez.

A térkép megváltoztatása: kattintson a fekete keresztel jelölt zöld gombra ráközelítéshez, a vonallal jelölt zöld gombra távolításhoz, vagy a zöld nyilakra a szomszédos térképek eléréséhez.


METAR-TAF: